createdAt,value
2018-05-15T00:01:50.216Z,14.10
2018-05-15T00:04:18.555Z,14.10
2018-05-15T00:06:46.849Z,14.10
2018-05-15T00:09:15.168Z,14.00
2018-05-15T00:11:43.443Z,13.90
2018-05-15T00:14:11.795Z,13.90
2018-05-15T00:16:40.144Z,13.90
2018-05-15T00:19:08.493Z,13.90
2018-05-15T00:21:36.848Z,13.90
2018-05-15T00:24:05.249Z,14.00
2018-05-15T00:26:33.636Z,14.00
2018-05-15T00:29:02.812Z,13.90
2018-05-15T00:31:31.959Z,13.80
2018-05-15T00:34:00.341Z,13.80
2018-05-15T00:36:28.672Z,13.80
2018-05-15T00:38:57.050Z,13.80
2018-05-15T00:41:25.371Z,13.70
2018-05-15T00:43:53.797Z,13.60
2018-05-15T00:46:22.200Z,13.60
2018-05-15T00:48:51.361Z,13.70
2018-05-15T00:51:19.713Z,13.70
2018-05-15T00:53:48.100Z,13.60
2018-05-15T00:56:16.401Z,13.60
2018-05-15T00:58:44.809Z,13.60
2018-05-15T01:01:13.948Z,13.60
2018-05-15T02:57:57.836Z,12.20
2018-05-15T03:00:26.222Z,12.20
2018-05-15T03:02:54.558Z,12.20
2018-05-15T03:05:22.972Z,12.10
2018-05-15T03:07:51.324Z,12.10
2018-05-15T03:10:19.741Z,12.20
2018-05-15T03:12:48.132Z,12.10
2018-05-15T03:15:16.553Z,12.10
2018-05-15T03:17:44.943Z,12.10
2018-05-15T03:20:13.300Z,12.20
2018-05-15T03:22:41.713Z,12.10
2018-05-15T03:25:10.096Z,12.00
2018-05-15T03:27:38.495Z,12.00
2018-05-15T03:30:07.666Z,12.00
2018-05-15T03:32:36.078Z,12.00
2018-05-15T03:35:04.467Z,12.00
2018-05-15T03:37:32.818Z,11.90
2018-05-15T03:40:02.002Z,12.00
2018-05-15T03:42:30.353Z,11.90
2018-05-15T03:44:58.725Z,12.00
2018-05-15T03:47:27.137Z,12.00
2018-05-15T03:49:55.485Z,12.00
2018-05-15T03:52:23.790Z,12.00
2018-05-15T03:54:52.072Z,12.00
2018-05-15T03:57:20.392Z,12.00
2018-05-15T03:59:48.700Z,12.00
2018-05-15T04:02:28.843Z,12.00
2018-05-15T04:05:08.952Z,12.00
2018-05-15T04:10:42.818Z,11.80
2018-05-15T04:13:11.059Z,11.80
2018-05-15T04:15:40.144Z,11.80
2018-05-15T04:18:08.433Z,11.80
2018-05-15T04:20:37.521Z,11.80
2018-05-15T04:23:05.813Z,11.80
2018-05-15T04:25:34.880Z,11.80
2018-05-15T04:28:03.200Z,11.80
2018-05-15T04:30:32.267Z,11.80
2018-05-15T04:33:01.344Z,11.90
2018-05-15T04:35:29.630Z,11.80
2018-05-15T04:37:57.943Z,11.90
2018-05-15T04:40:26.228Z,11.90
2018-05-15T04:42:54.540Z,11.90
2018-05-15T04:45:22.828Z,12.00
2018-05-15T04:47:51.141Z,12.00
2018-05-15T04:50:19.431Z,12.00
2018-05-15T04:52:47.735Z,12.00
2018-05-15T04:55:16.029Z,12.00
2018-05-15T04:57:44.347Z,12.00
2018-05-15T05:00:13.395Z,12.10
2018-05-15T05:02:41.700Z,12.10
2018-05-15T05:05:10.768Z,12.10
2018-05-15T05:07:39.071Z,12.10
2018-05-15T05:10:07.356Z,12.10
2018-05-15T05:12:35.660Z,12.10
2018-05-15T05:15:03.940Z,12.10
2018-05-15T05:17:32.262Z,12.10
2018-05-15T05:20:00.545Z,12.20
2018-05-15T05:22:28.863Z,12.20
2018-05-15T05:24:57.149Z,12.20
2018-05-15T05:27:25.474Z,12.30
2018-05-15T05:29:53.764Z,12.30
2018-05-15T05:32:22.086Z,12.40
2018-05-15T05:34:50.391Z,12.40
2018-05-15T05:37:19.474Z,12.50
2018-05-15T05:39:47.767Z,12.50
2018-05-15T05:42:16.086Z,12.60
2018-05-15T05:44:45.135Z,12.70
2018-05-15T05:47:13.448Z,12.60
2018-05-15T05:49:42.515Z,12.80
2018-05-15T05:52:10.815Z,12.80
2018-05-15T05:54:39.117Z,12.90
2018-05-15T05:57:08.212Z,13.10
2018-05-15T05:59:36.517Z,13.00
2018-05-15T06:02:04.829Z,13.10
2018-05-15T06:04:33.124Z,13.20
2018-05-15T06:07:01.413Z,13.20
2018-05-15T06:09:30.505Z,13.40
2018-05-15T06:11:59.575Z,13.40
2018-05-15T06:14:27.904Z,13.40
2018-05-15T06:16:56.197Z,13.50
2018-05-15T06:19:24.519Z,13.50
2018-05-15T06:21:52.812Z,13.50
2018-05-15T06:24:21.890Z,13.70
2018-05-15T06:26:50.185Z,13.70
2018-05-15T06:29:19.258Z,13.90
2018-05-15T06:31:47.549Z,13.80
2018-05-15T06:34:16.631Z,14.00
2018-05-15T06:36:44.924Z,14.00
2018-05-15T06:39:14.030Z,14.20
2018-05-15T06:41:42.336Z,14.20
2018-05-15T06:44:10.653Z,14.20
2018-05-15T06:46:38.944Z,14.30
2018-05-15T06:49:08.119Z,14.50
2018-05-15T06:51:36.420Z,14.40
2018-05-15T06:54:04.735Z,14.60
2018-05-15T06:56:33.055Z,14.70
2018-05-15T06:59:01.369Z,14.70
2018-05-15T07:01:30.415Z,14.80
2018-05-15T07:03:58.724Z,14.80
2018-05-15T07:06:27.363Z,14.90
2018-05-15T07:08:55.678Z,15.00
2018-05-15T07:11:24.062Z,15.00
2018-05-15T07:13:52.436Z,15.10
2018-05-15T07:16:21.526Z,15.30
2018-05-15T07:18:49.848Z,15.30
2018-05-15T07:21:19.153Z,15.40
2018-05-15T07:23:47.539Z,15.40
2018-05-15T07:26:15.828Z,15.50
2018-05-15T07:28:44.164Z,15.50
2018-05-15T07:31:13.269Z,15.70
2018-05-15T07:33:41.654Z,15.70
2018-05-15T07:36:09.985Z,15.80
2018-05-15T07:38:38.392Z,15.80
2018-05-15T07:41:07.736Z,15.90
2018-05-15T07:43:35.887Z,15.90
2018-05-15T07:46:04.220Z,16.00
2018-05-15T07:48:32.609Z,16.10
2018-05-15T07:51:00.924Z,16.20
2018-05-15T07:53:29.211Z,16.30
2018-05-15T07:55:57.532Z,16.30
2018-05-15T07:58:25.831Z,16.40
2018-05-15T08:00:54.136Z,16.50
2018-05-15T08:03:22.431Z,16.60
2018-05-15T08:05:50.767Z,16.60
2018-05-15T08:08:19.816Z,16.80
2018-05-15T08:10:48.139Z,16.80
2018-05-15T08:13:16.415Z,16.80
2018-05-15T08:15:44.731Z,16.90
2018-05-15T08:18:13.027Z,16.90
2018-05-15T08:20:41.338Z,17.00
2018-05-15T08:23:09.629Z,17.00
2018-05-15T08:25:38.716Z,17.20
2018-05-15T08:28:07.000Z,17.20
2018-05-15T08:30:35.308Z,17.30
2018-05-15T08:33:03.596Z,17.40
2018-05-15T08:35:31.906Z,17.40
2018-05-15T08:38:00.187Z,17.50
2018-05-15T08:40:28.521Z,17.60
2018-05-15T08:42:56.804Z,17.60
2018-05-15T08:45:25.171Z,17.70
2018-05-15T08:47:53.415Z,17.80
2018-05-15T08:50:21.733Z,17.90
2018-05-15T08:52:50.012Z,17.90
2018-05-15T08:55:18.344Z,18.00
2018-05-15T08:57:46.624Z,18.00
2018-05-15T09:00:14.950Z,18.10
2018-05-15T09:02:43.229Z,18.00
2018-05-15T09:05:11.536Z,18.10
2018-05-15T09:07:39.873Z,18.20
2018-05-15T09:10:08.193Z,18.20
2018-05-15T09:12:36.473Z,18.30
2018-05-15T09:15:04.800Z,18.30
2018-05-15T09:17:33.113Z,18.40
2018-05-15T09:20:01.457Z,18.30
2018-05-15T09:22:29.778Z,18.30
2018-05-15T09:24:58.088Z,18.30
2018-05-15T09:27:27.161Z,18.20
2018-05-15T09:29:55.453Z,18.20
2018-05-15T09:32:23.769Z,18.20
2018-05-15T09:34:52.047Z,18.40
2018-05-15T09:37:20.364Z,18.50
2018-05-15T09:39:48.648Z,18.70
2018-05-15T09:42:16.973Z,18.90
2018-05-15T09:44:45.250Z,19.00
2018-05-15T09:47:13.565Z,19.10
2018-05-15T09:49:42.629Z,19.20
2018-05-15T09:52:10.944Z,19.10
2018-05-15T09:54:39.239Z,19.20
2018-05-15T09:57:07.552Z,19.30
2018-05-15T09:59:35.833Z,19.40
2018-05-15T10:02:04.135Z,19.50
2018-05-15T10:04:32.483Z,19.60
2018-05-15T10:07:00.806Z,19.60
2018-05-15T10:09:29.132Z,19.70
2018-05-15T10:11:57.441Z,19.80
2018-05-15T10:14:25.729Z,19.80
2018-05-15T10:16:54.049Z,19.90
2018-05-15T10:19:23.101Z,19.90
2018-05-15T10:21:51.409Z,19.90
2018-05-15T10:24:19.686Z,20.10
2018-05-15T10:26:48.001Z,20.20
2018-05-15T10:29:16.288Z,20.30
2018-05-15T10:31:44.597Z,20.30
2018-05-15T10:34:12.869Z,20.40
2018-05-15T10:36:41.192Z,20.50
2018-05-15T10:39:10.257Z,20.60
2018-05-15T10:41:38.572Z,20.60
2018-05-15T10:44:06.872Z,20.60
2018-05-15T10:46:35.177Z,20.70
2018-05-15T10:49:03.489Z,20.70
2018-05-15T10:51:32.541Z,20.80
2018-05-15T10:54:00.852Z,20.80
2018-05-15T10:56:29.917Z,21.00
2018-05-15T10:58:58.220Z,21.00
2018-05-15T11:01:26.556Z,21.20
2018-05-15T11:03:54.875Z,21.20
2018-05-15T11:06:23.162Z,21.20
2018-05-15T11:08:52.268Z,21.10
2018-05-15T11:11:21.345Z,21.10
2018-05-15T11:13:49.660Z,21.10
2018-05-15T11:16:17.957Z,21.00
2018-05-15T11:18:46.328Z,21.10
2018-05-15T11:21:26.368Z,21.10
2018-05-15T11:26:57.165Z,21.20
2018-05-15T11:29:25.477Z,21.30
2018-05-15T11:31:54.526Z,21.40
2018-05-15T11:34:22.873Z,21.40
2018-05-15T11:36:51.165Z,21.40
2018-05-15T11:39:19.464Z,21.50
2018-05-15T11:41:47.775Z,21.60
2018-05-15T11:44:16.074Z,21.60
2018-05-15T11:46:44.364Z,21.60
2018-05-15T11:49:13.398Z,21.70
2018-05-15T11:51:41.718Z,21.70
2018-05-15T11:54:09.339Z,21.80
2018-05-15T11:56:37.633Z,21.70
2018-05-15T11:59:05.953Z,21.60
2018-05-15T12:01:34.239Z,21.50
2018-05-15T12:04:02.634Z,21.60
2018-05-15T12:06:30.889Z,21.70
2018-05-15T12:08:59.201Z,21.80
2018-05-15T12:11:27.496Z,21.90
2018-05-15T12:13:55.814Z,21.90
2018-05-15T12:16:24.097Z,21.80
2018-05-15T12:18:52.425Z,21.70
2018-05-15T12:21:21.497Z,21.60
2018-05-15T12:23:49.803Z,21.60
2018-05-15T12:26:18.097Z,21.70
2018-05-15T12:28:47.184Z,21.70
2018-05-15T12:31:16.245Z,21.70
2018-05-15T12:33:44.568Z,21.70
2018-05-15T12:36:13.680Z,21.90
2018-05-15T12:38:42.005Z,21.80
2018-05-15T12:41:10.282Z,21.80
2018-05-15T12:43:38.592Z,21.90
2018-05-15T12:46:07.660Z,22.00
2018-05-15T12:48:36.030Z,22.00
2018-05-15T12:51:04.260Z,22.10
2018-05-15T12:53:32.585Z,22.20
2018-05-15T12:56:00.874Z,22.20
2018-05-15T12:58:29.189Z,22.30
2018-05-15T13:00:57.513Z,22.40
2018-05-15T13:03:25.816Z,22.50
2018-05-15T13:05:54.097Z,22.60
2018-05-15T13:08:23.186Z,22.70
2018-05-15T13:10:51.484Z,22.60
2018-05-15T13:13:19.778Z,22.60
2018-05-15T13:15:48.157Z,22.50
2018-05-15T13:18:16.545Z,22.40
2018-05-15T13:20:45.769Z,22.60
2018-05-15T13:23:14.137Z,22.60
2018-05-15T13:25:42.533Z,22.70
2018-05-15T13:28:10.869Z,22.70
2018-05-15T13:30:40.003Z,22.80
2018-05-15T13:33:08.418Z,22.80
2018-05-15T13:35:37.597Z,22.90
2018-05-15T13:38:05.964Z,22.90
2018-05-15T13:40:34.349Z,23.10
2018-05-15T13:43:02.733Z,23.20
2018-05-15T13:45:31.888Z,23.10
2018-05-15T13:48:00.983Z,22.90
2018-05-15T13:50:29.458Z,22.90
2018-05-15T13:52:57.761Z,22.70
2018-05-15T13:55:26.072Z,22.60
2018-05-15T13:57:54.352Z,22.30
2018-05-15T14:00:22.660Z,22.20
2018-05-15T14:02:50.955Z,22.20
2018-05-15T14:05:19.269Z,22.20
2018-05-15T14:07:47.569Z,22.20
2018-05-15T14:10:16.781Z,22.20
2018-05-15T14:12:45.132Z,22.20
2018-05-15T14:15:13.545Z,22.50
2018-05-15T14:17:41.914Z,22.50
2018-05-15T14:20:11.040Z,22.40
2018-05-15T14:22:39.414Z,22.30
2018-05-15T14:25:07.789Z,22.40
2018-05-15T14:27:36.101Z,22.60
2018-05-15T14:30:04.402Z,22.80
2018-05-15T14:32:32.721Z,22.90
2018-05-15T14:35:01.042Z,22.90
2018-05-15T14:37:29.363Z,22.80
2018-05-15T14:39:57.679Z,22.50
2018-05-15T14:42:37.783Z,22.40
2018-05-15T14:45:06.870Z,22.50
2018-05-15T14:47:35.925Z,22.80
2018-05-15T14:50:04.229Z,22.80
2018-05-15T14:52:32.516Z,23.00
2018-05-15T14:55:01.607Z,23.20
2018-05-15T14:57:29.885Z,23.20
2018-05-15T14:59:58.272Z,23.10
2018-05-15T15:02:27.380Z,23.40
2018-05-15T15:04:55.730Z,23.40
2018-05-15T15:07:24.102Z,23.60
2018-05-15T15:09:52.459Z,23.80
2018-05-15T15:12:20.921Z,24.00
2018-05-15T15:14:49.345Z,23.90
2018-05-15T15:17:17.713Z,23.90
2018-05-15T15:19:46.004Z,23.90
2018-05-15T15:22:14.319Z,23.90
2018-05-15T15:24:42.595Z,23.90
2018-05-15T15:27:10.920Z,23.60
2018-05-15T15:29:39.199Z,23.40
2018-05-15T15:32:07.508Z,23.20
2018-05-15T15:34:36.556Z,23.20
2018-05-15T15:37:04.866Z,23.20
2018-05-15T15:39:33.162Z,23.20
2018-05-15T15:42:02.237Z,23.10
2018-05-15T15:44:30.515Z,23.10
2018-05-15T15:46:58.832Z,23.10
2018-05-15T15:49:27.127Z,23.00
2018-05-15T15:51:55.437Z,22.80
2018-05-15T15:54:23.729Z,22.80
2018-05-15T15:56:52.061Z,22.80
2018-05-15T15:59:20.360Z,22.80
2018-05-15T16:01:48.673Z,22.90
2018-05-15T16:04:17.725Z,22.80
2018-05-15T16:06:46.039Z,22.80
2018-05-15T16:09:15.096Z,22.80
2018-05-15T16:11:44.165Z,22.80
2018-05-15T16:14:12.453Z,22.70
2018-05-15T16:16:40.776Z,22.60
2018-05-15T16:19:09.056Z,22.60
2018-05-15T16:21:37.381Z,22.60
2018-05-15T16:24:05.664Z,22.50
2018-05-15T16:26:33.981Z,22.40
2018-05-15T16:29:02.265Z,22.40
2018-05-15T16:31:30.596Z,22.40
2018-05-15T16:33:58.877Z,22.40
2018-05-15T16:36:27.185Z,22.20
2018-05-15T16:38:55.482Z,22.10
2018-05-15T16:41:23.799Z,22.00
2018-05-15T16:43:52.090Z,22.00
2018-05-15T16:46:20.407Z,22.00
2018-05-15T16:48:48.702Z,22.10
2018-05-15T16:51:17.764Z,21.90
2018-05-15T16:53:46.071Z,21.90
2018-05-15T16:56:15.128Z,22.00
2018-05-15T16:58:43.478Z,22.00
2018-05-15T17:01:11.741Z,22.00
2018-05-15T17:03:40.065Z,22.00
2018-05-15T17:06:08.355Z,22.00
2018-05-15T17:08:36.681Z,22.10
2018-05-15T17:11:04.972Z,22.10
2018-05-15T17:13:33.342Z,22.20
2018-05-15T17:16:02.361Z,22.40
2018-05-15T17:18:30.698Z,22.40
2018-05-15T17:20:59.105Z,22.50
2018-05-15T17:23:27.361Z,22.50
2018-05-15T17:25:55.654Z,22.50
2018-05-15T17:28:24.000Z,22.50
2018-05-15T17:30:52.313Z,22.40
2018-05-15T17:33:20.657Z,22.40
2018-05-15T17:35:48.960Z,22.30
2018-05-15T17:38:17.275Z,22.20
2018-05-15T17:40:45.563Z,22.10
2018-05-15T17:43:13.880Z,22.00
2018-05-15T17:45:42.164Z,22.00
2018-05-15T17:48:10.479Z,22.00
2018-05-15T17:50:38.758Z,21.90
2018-05-15T17:53:07.091Z,21.90
2018-05-15T17:55:35.376Z,21.90
2018-05-15T17:58:03.703Z,21.80
2018-05-15T18:00:31.985Z,21.70
2018-05-15T18:03:00.291Z,21.60
2018-05-15T18:05:28.573Z,21.50
2018-05-15T18:07:56.883Z,21.50
2018-05-15T18:10:25.177Z,21.40
2018-05-15T18:12:54.284Z,21.40
2018-05-15T18:15:22.629Z,21.30
2018-05-15T18:17:50.944Z,21.30
2018-05-15T18:20:19.233Z,21.20
2018-05-15T18:22:48.316Z,21.00
2018-05-15T18:25:16.605Z,20.90
2018-05-15T18:27:45.695Z,20.80
2018-05-15T18:30:14.784Z,20.80
2018-05-15T18:32:43.109Z,20.80
2018-05-15T18:35:11.426Z,20.70
2018-05-15T18:37:39.770Z,20.70
2018-05-15T18:40:08.051Z,20.50
2018-05-15T18:42:36.332Z,20.40
2018-05-15T18:45:04.649Z,20.30
2018-05-15T18:47:32.939Z,20.20
2018-05-15T18:50:02.024Z,20.00
2018-05-15T18:52:30.296Z,19.90
2018-05-15T18:54:58.620Z,19.90
2018-05-15T18:57:26.910Z,19.70
2018-05-15T18:59:55.245Z,19.50
2018-05-15T19:02:24.312Z,19.10
2018-05-15T19:04:52.620Z,19.10
2018-05-15T19:07:21.659Z,18.90
2018-05-15T19:09:49.993Z,18.80
2018-05-15T19:12:19.057Z,18.60
2018-05-15T19:14:47.361Z,18.60
2018-05-15T19:17:16.413Z,18.50
2018-05-15T19:19:44.726Z,18.50
2018-05-15T19:22:13.772Z,18.40
2018-05-15T19:24:42.084Z,18.40
2018-05-15T19:27:10.382Z,18.40
2018-05-15T19:29:39.465Z,18.20
2018-05-15T19:32:13.572Z,18.20
2018-05-15T19:34:47.481Z,18.20
2018-05-15T19:37:15.792Z,18.20
2018-05-15T19:39:44.182Z,18.20
2018-05-15T19:42:13.205Z,18.10
2018-05-15T19:44:41.544Z,18.10
2018-05-15T19:47:09.864Z,18.00
2018-05-15T19:49:38.184Z,18.00
2018-05-15T19:52:06.464Z,18.00
2018-05-15T19:54:35.535Z,18.00
2018-05-15T19:57:03.834Z,18.00
2018-05-15T19:59:32.906Z,18.10
2018-05-15T20:02:01.212Z,18.00
2018-05-15T20:04:30.295Z,18.10
2018-05-15T20:06:59.357Z,18.10
2018-05-15T20:09:27.664Z,18.00
2018-05-15T20:11:55.944Z,18.10
2018-05-15T20:14:25.045Z,17.90
2018-05-15T20:16:54.110Z,17.80
2018-05-15T20:19:22.445Z,17.80
2018-05-15T20:21:50.734Z,17.80
2018-05-15T20:24:19.045Z,17.60
2018-05-15T20:26:47.343Z,17.40
2018-05-15T20:29:15.651Z,17.40
2018-05-15T20:31:43.976Z,17.30
2018-05-15T20:34:12.252Z,17.20
2018-05-15T20:36:40.593Z,17.10
2018-05-15T20:39:08.877Z,17.10
2018-05-15T20:41:37.185Z,17.10
2018-05-15T20:44:05.470Z,17.20
2018-05-15T20:46:33.791Z,17.30
2018-05-15T20:49:02.101Z,17.30
2018-05-15T20:51:31.184Z,17.20
2018-05-15T20:53:59.464Z,17.20
2018-05-15T20:56:27.781Z,17.20
2018-05-15T20:58:56.065Z,17.10
2018-05-15T21:01:24.379Z,17.10
2018-05-15T21:03:52.680Z,17.10
2018-05-15T21:06:20.995Z,17.20
2018-05-15T21:08:49.295Z,17.30
2018-05-15T21:11:17.618Z,17.30
2018-05-15T21:13:45.916Z,17.30
2018-05-15T21:16:14.244Z,17.40
2018-05-15T21:18:42.536Z,17.40
2018-05-15T21:21:10.849Z,17.40
2018-05-15T21:23:39.136Z,17.40
2018-05-15T21:26:07.457Z,17.30
2018-05-15T21:28:35.752Z,17.20
2018-05-15T21:31:04.052Z,17.20
2018-05-15T21:33:32.335Z,17.10
2018-05-15T21:36:00.646Z,17.00
2018-05-15T21:38:32.020Z,16.90
2018-05-15T21:41:00.330Z,16.90
2018-05-15T21:43:28.617Z,16.80
2018-05-15T21:45:56.923Z,16.80
2018-05-15T21:48:25.231Z,16.90
2018-05-15T21:50:53.544Z,16.90
2018-05-15T21:53:21.839Z,16.90
2018-05-15T21:55:50.954Z,16.90
2018-05-15T21:58:19.259Z,16.90
2018-05-15T22:00:47.576Z,16.90
2018-05-15T22:03:16.648Z,16.80
2018-05-15T22:05:44.979Z,16.80
2018-05-15T22:08:13.265Z,16.80
2018-05-15T22:10:41.580Z,16.90
2018-05-15T22:13:21.712Z,17.00
2018-05-15T22:16:08.552Z,17.10
2018-05-15T22:18:54.894Z,17.10
2018-05-15T22:21:41.885Z,17.20
2018-05-15T22:24:26.127Z,17.20
2018-05-15T22:26:54.460Z,17.30
2018-05-15T22:29:22.764Z,17.20
2018-05-15T22:31:51.076Z,17.20
2018-05-15T22:34:19.357Z,17.30
2018-05-15T22:36:47.678Z,17.20
2018-05-15T22:39:15.959Z,17.30
2018-05-15T22:41:44.358Z,17.30
2018-05-15T22:44:13.365Z,17.20
2018-05-15T22:46:41.687Z,17.20
2018-05-15T22:49:09.967Z,17.20
2018-05-15T22:51:38.294Z,17.20
2018-05-15T22:54:06.569Z,17.20
2018-05-15T22:56:34.880Z,17.10
2018-05-15T22:59:03.952Z,17.00
2018-05-15T23:01:32.280Z,16.90
2018-05-15T23:04:00.565Z,16.90
2018-05-15T23:06:28.886Z,16.70
2018-05-15T23:08:57.960Z,16.70
2018-05-15T23:11:26.270Z,16.60
2018-05-15T23:13:54.565Z,16.60
2018-05-15T23:16:23.635Z,16.50
2018-05-15T23:18:51.920Z,16.50
2018-05-15T23:21:20.249Z,16.50
2018-05-15T23:23:48.536Z,16.40
2018-05-15T23:26:16.820Z,16.30
2018-05-15T23:28:45.133Z,16.30
2018-05-15T23:31:14.196Z,16.00
2018-05-15T23:33:42.500Z,16.00
2018-05-15T23:36:10.797Z,15.90
2018-05-15T23:38:39.872Z,16.00
2018-05-15T23:41:08.162Z,16.00
2018-05-15T23:43:36.484Z,15.90
2018-05-15T23:46:04.771Z,15.90
2018-05-15T23:48:33.106Z,15.90
2018-05-15T23:51:01.392Z,16.00
2018-05-15T23:53:29.713Z,16.00
2018-05-15T23:55:57.988Z,16.00
2018-05-15T23:58:26.321Z,16.00
